sensor_id;sensor_type;location;lat;lon;timestamp;pressure;altitude;pressure_sealevel;temperature;humidity
30682;BME280;17439;48.092;11.842;2023-02-13T00:00:19;97275.28;;;4.81;68.52
30682;BME280;17439;48.092;11.842;2023-02-13T00:02:46;97262.88;;;4.80;68.59
30682;BME280;17439;48.092;11.842;2023-02-13T00:05:13;97273.84;;;4.78;68.75
30682;BME280;17439;48.092;11.842;2023-02-13T00:07:39;97268.47;;;4.78;68.81
30682;BME280;17439;48.092;11.842;2023-02-13T00:10:07;97274.66;;;4.79;69.01
30682;BME280;17439;48.092;11.842;2023-02-13T00:12:34;97265.56;;;4.80;69.07
30682;BME280;17439;48.092;11.842;2023-02-13T00:15:01;97273.38;;;4.81;69.01
30682;BME280;17439;48.092;11.842;2023-02-13T00:17:27;97270.47;;;4.83;69.06
30682;BME280;17439;48.092;11.842;2023-02-13T00:19:54;97263.00;;;4.85;69.23
30682;BME280;17439;48.092;11.842;2023-02-13T00:22:21;97263.38;;;4.88;69.09
30682;BME280;17439;48.092;11.842;2023-02-13T00:24:47;97261.50;;;4.89;68.95
30682;BME280;17439;48.092;11.842;2023-02-13T00:27:14;97261.28;;;4.90;68.80
30682;BME280;17439;48.092;11.842;2023-02-13T00:29:40;97259.38;;;4.91;68.86
30682;BME280;17439;48.092;11.842;2023-02-13T00:32:07;97250.28;;;4.92;68.80
30682;BME280;17439;48.092;11.842;2023-02-13T00:34:34;97247.59;;;4.92;68.79
30682;BME280;17439;48.092;11.842;2023-02-13T00:37:01;97247.38;;;4.94;68.84
30682;BME280;17439;48.092;11.842;2023-02-13T00:39:28;97240.34;;;4.93;68.83
30682;BME280;17439;48.092;11.842;2023-02-13T00:41:55;97241.16;;;4.93;68.58
30682;BME280;17439;48.092;11.842;2023-02-13T00:44:22;97240.13;;;4.94;68.78
30682;BME280;17439;48.092;11.842;2023-02-13T00:46:48;97234.97;;;4.93;68.72
30682;BME280;17439;48.092;11.842;2023-02-13T00:49:15;97238.47;;;4.93;68.85
30682;BME280;17439;48.092;11.842;2023-02-13T00:51:42;97238.25;;;4.95;68.83
30682;BME280;17439;48.092;11.842;2023-02-13T00:54:09;97237.44;;;4.94;68.88
30682;BME280;17439;48.092;11.842;2023-02-13T00:56:35;97235.56;;;4.95;68.80
30682;BME280;17439;48.092;11.842;2023-02-13T00:59:04;97234.75;;;4.94;68.96
30682;BME280;17439;48.092;11.842;2023-02-13T01:01:31;97233.69;;;4.95;68.69
30682;BME280;17439;48.092;11.842;2023-02-13T01:03:58;97233.69;;;4.95;68.77
30682;BME280;17439;48.092;11.842;2023-02-13T01:06:26;97227.72;;;4.93;68.60
30682;BME280;17439;48.092;11.842;2023-02-13T01:08:52;97237.66;;;4.93;68.56
30682;BME280;17439;48.092;11.842;2023-02-13T01:11:19;97247.59;;;4.92;68.62
30682;BME280;17439;48.092;11.842;2023-02-13T01:13:46;97240.00;;;4.89;68.19
30682;BME280;17439;48.092;11.842;2023-02-13T01:16:13;97238.56;;;4.86;68.21
30682;BME280;17439;48.092;11.842;2023-02-13T01:18:39;97240.47;;;4.86;68.24
30682;BME280;17439;48.092;11.842;2023-02-13T01:21:07;97234.97;;;4.81;68.19
30682;BME280;17439;48.092;11.842;2023-02-13T01:23:36;97242.63;;;4.77;68.21
30682;BME280;17439;48.092;11.842;2023-02-13T01:26:05;97242.06;;;4.75;68.48
30682;BME280;17439;48.092;11.842;2023-02-13T01:28:33;97243.34;;;4.72;68.45
30682;BME280;17439;48.092;11.842;2023-02-13T01:30:59;97235.53;;;4.71;68.65
30682;BME280;17439;48.092;11.842;2023-02-13T01:33:28;97233.06;;;4.69;68.56
30682;BME280;17439;48.092;11.842;2023-02-13T01:35:54;97234.69;;;4.70;68.67
30682;BME280;17439;48.092;11.842;2023-02-13T01:38:21;97232.00;;;4.70;68.63
30682;BME280;17439;48.092;11.842;2023-02-13T01:40:50;97240.06;;;4.70;68.58
30682;BME280;17439;48.092;11.842;2023-02-13T01:43:18;97236.56;;;4.70;68.62
30682;BME280;17439;48.092;11.842;2023-02-13T01:45:47;97240.91;;;4.71;68.58
30682;BME280;17439;48.092;11.842;2023-02-13T01:48:18;97233.66;;;4.71;68.29
30682;BME280;17439;48.092;11.842;2023-02-13T01:50:52;97233.88;;;4.70;68.23
30682;BME280;17439;48.092;11.842;2023-02-13T01:53:24;97232.00;;;4.70;68.42
30682;BME280;17439;48.092;11.842;2023-02-13T01:55:57;97227.69;;;4.69;68.15
30682;BME280;17439;48.092;11.842;2023-02-13T01:58:29;97229.78;;;4.67;68.30
30682;BME280;17439;48.092;11.842;2023-02-13T02:00:57;97230.59;;;4.68;68.48
30682;BME280;17439;48.092;11.842;2023-02-13T02:03:32;97228.16;;;4.66;68.53
30682;BME280;17439;48.092;11.842;2023-02-13T02:06:06;97224.50;;;4.61;68.20
30682;BME280;17439;48.092;11.842;2023-02-13T02:08:34;97228.16;;;4.66;68.47
30682;BME280;17439;48.092;11.842;2023-02-13T02:11:07;97224.63;;;4.66;68.03
30682;BME280;17439;48.092;11.842;2023-02-13T02:13:35;97221.94;;;4.66;68.23
30682;BME280;17439;48.092;11.842;2023-02-13T02:16:06;97225.69;;;4.65;68.43
30682;BME280;17439;48.092;11.842;2023-02-13T02:18:32;97223.81;;;4.65;68.29
30682;BME280;17439;48.092;11.842;2023-02-13T02:32:18;97228.72;;;4.57;67.90
30682;BME280;17439;48.092;11.842;2023-02-13T02:37:39;97232.44;;;4.56;68.06
30682;BME280;17439;48.092;11.842;2023-02-13T02:40:34;97235.94;;;4.56;68.17
30682;BME280;17439;48.092;11.842;2023-02-13T02:43:20;97242.38;;;4.55;68.30
30682;BME280;17439;48.092;11.842;2023-02-13T02:46:33;97235.94;;;4.56;68.26
30682;BME280;17439;48.092;11.842;2023-02-13T02:49:13;97247.50;;;4.57;68.02
30682;BME280;17439;48.092;11.842;2023-02-13T02:51:54;97243.97;;;4.56;68.12
30682;BME280;17439;48.092;11.842;2023-02-13T02:54:48;97246.91;;;4.54;68.08
30682;BME280;17439;48.092;11.842;2023-02-13T02:57:22;97245.88;;;4.56;67.90
30682;BME280;17439;48.092;11.842;2023-02-13T02:59:56;97247.75;;;4.55;68.27
30682;BME280;17439;48.092;11.842;2023-02-13T03:02:23;97243.41;;;4.54;68.23
30682;BME280;17439;48.092;11.842;2023-02-13T03:04:52;97239.91;;;4.53;68.23
30682;BME280;17439;48.092;11.842;2023-02-13T03:07:20;97250.44;;;4.55;68.50
30682;BME280;17439;48.092;11.842;2023-02-13T03:09:52;97245.28;;;4.53;68.42
30682;BME280;17439;48.092;11.842;2023-02-13T03:12:23;97248.78;;;4.54;68.52
30682;BME280;17439;48.092;11.842;2023-02-13T03:14:51;97241.53;;;4.54;68.79
30682;BME280;17439;48.092;11.842;2023-02-13T03:17:18;97247.75;;;4.55;68.62
30682;BME280;17439;48.092;11.842;2023-02-13T03:27:49;97247.75;;;4.55;68.15
30682;BME280;17439;48.092;11.842;2023-02-13T03:33:25;97255.78;;;4.55;68.26
30682;BME280;17439;48.092;11.842;2023-02-13T03:36:01;97245.88;;;4.56;68.42
30682;BME280;17439;48.092;11.842;2023-02-13T03:41:41;97245.88;;;4.56;67.97
30682;BME280;17439;48.092;11.842;2023-02-13T03:44:17;97248.31;;;4.57;67.95
30682;BME280;17439;48.092;11.842;2023-02-13T03:46:47;97250.78;;;4.59;68.12
30682;BME280;17439;48.092;11.842;2023-02-13T03:51:53;97251.47;;;4.54;67.89
30682;BME280;17439;48.092;11.842;2023-02-13T03:54:33;97256.03;;;4.53;67.82
30682;BME280;17439;48.092;11.842;2023-02-13T03:57:03;97251.69;;;4.52;67.85
30682;BME280;17439;48.092;11.842;2023-02-13T03:59:33;97252.94;;;4.50;67.72
30682;BME280;17439;48.092;11.842;2023-02-13T04:02:11;97256.31;;;4.45;67.65
30682;BME280;17439;48.092;11.842;2023-02-13T04:04:47;97256.78;;;4.42;67.78
30682;BME280;17439;48.092;11.842;2023-02-13T04:07:17;97247.91;;;4.42;68.03
30682;BME280;17439;48.092;11.842;2023-02-13T04:09:44;97250.00;;;4.40;68.02
30682;BME280;17439;48.092;11.842;2023-02-13T04:15:25;97257.94;;;4.34;68.16
30682;BME280;17439;48.092;11.842;2023-02-13T04:18:09;97259.41;;;4.30;67.59
30682;BME280;17439;48.092;11.842;2023-02-13T04:20:39;97251.38;;;4.30;68.21
30682;BME280;17439;48.092;11.842;2023-02-13T04:23:07;97251.81;;;4.27;68.10
30682;BME280;17439;48.092;11.842;2023-02-13T04:25:36;97246.44;;;4.27;68.08
30682;BME280;17439;48.092;11.842;2023-02-13T04:28:04;97249.34;;;4.26;68.30
30682;BME280;17439;48.092;11.842;2023-02-13T04:30:32;97248.53;;;4.25;68.56
30682;BME280;17439;48.092;11.842;2023-02-13T04:32:59;97248.78;;;4.24;68.41
30682;BME280;17439;48.092;11.842;2023-02-13T04:35:25;97248.78;;;4.24;68.56
30682;BME280;17439;48.092;11.842;2023-02-13T04:37:52;97252.25;;;4.24;68.54
30682;BME280;17439;48.092;11.842;2023-02-13T04:40:18;97253.06;;;4.25;68.65
30682;BME280;17439;48.092;11.842;2023-02-13T04:42:48;97258.91;;;4.22;68.40
30682;BME280;17439;48.092;11.842;2023-02-13T04:45:15;97252.25;;;4.24;68.16
30682;BME280;17439;48.092;11.842;2023-02-13T04:47:41;97254.94;;;4.24;68.23
30682;BME280;17439;48.092;11.842;2023-02-13T04:50:08;97243.41;;;4.24;68.04
30682;BME280;17439;48.092;11.842;2023-02-13T04:52:35;97253.56;;;4.22;68.16
30682;BME280;17439;48.092;11.842;2023-02-13T04:55:02;97247.56;;;4.20;67.98
30682;BME280;17439;48.092;11.842;2023-02-13T04:57:28;97247.78;;;4.18;67.99
30682;BME280;17439;48.092;11.842;2023-02-13T04:59:55;97238.13;;;4.17;68.38
30682;BME280;17439;48.092;11.842;2023-02-13T05:02:21;97235.66;;;4.15;68.21
30682;BME280;17439;48.092;11.842;2023-02-13T05:04:48;97235.88;;;4.14;68.42
30682;BME280;17439;48.092;11.842;2023-02-13T05:07:15;97236.69;;;4.14;68.47
30682;BME280;17439;48.092;11.842;2023-02-13T05:09:41;97238.56;;;4.14;68.71
30682;BME280;17439;48.092;11.842;2023-02-13T05:12:08;97244.75;;;4.14;68.80
30682;BME280;17439;48.092;11.842;2023-02-13T05:14:34;97234.81;;;4.15;68.70
30682;BME280;17439;48.092;11.842;2023-02-13T05:17:01;97246.16;;;4.17;68.60
30682;BME280;17439;48.092;11.842;2023-02-13T05:19:28;97248.84;;;4.17;68.76
30682;BME280;17439;48.092;11.842;2023-02-13T05:21:54;97240.34;;;4.20;68.62
30682;BME280;17439;48.092;11.842;2023-02-13T05:24:21;97246.53;;;4.21;68.54
30682;BME280;17439;48.092;11.842;2023-02-13T05:26:47;97249.00;;;4.22;68.29
30682;BME280;17439;48.092;11.842;2023-02-13T05:29:14;97252.72;;;4.21;68.35
30682;BME280;17439;48.092;11.842;2023-02-13T05:31:40;97245.72;;;4.20;68.10
30682;BME280;17439;48.092;11.842;2023-02-13T05:34:07;97253.16;;;4.18;68.01
30682;BME280;17439;48.092;11.842;2023-02-13T05:36:34;97254.22;;;4.17;68.28
30682;BME280;17439;48.092;11.842;2023-02-13T05:39:00;97258.97;;;4.15;68.34
30682;BME280;17439;48.092;11.842;2023-02-13T05:41:27;97259.81;;;4.15;68.50
30682;BME280;17439;48.092;11.842;2023-02-13T05:43:53;97260.63;;;4.16;68.38
30682;BME280;17439;48.092;11.842;2023-02-13T05:46:20;97252.00;;;4.14;68.35
30682;BME280;17439;48.092;11.842;2023-02-13T05:48:46;97264.34;;;4.15;68.49
30682;BME280;17439;48.092;11.842;2023-02-13T05:51:13;97260.63;;;4.16;68.53
30682;BME280;17439;48.092;11.842;2023-02-13T05:53:40;97257.94;;;4.16;68.44
30682;BME280;17439;48.092;11.842;2023-02-13T05:56:06;97261.44;;;4.16;68.68
30682;BME280;17439;48.092;11.842;2023-02-13T05:58:33;97260.41;;;4.17;68.55
30682;BME280;17439;48.092;11.842;2023-02-13T06:01:00;97264.97;;;4.17;68.57
30682;BME280;17439;48.092;11.842;2023-02-13T06:03:28;97260.63;;;4.16;68.29
30682;BME280;17439;48.092;11.842;2023-02-13T06:05:55;97273.25;;;4.15;68.13
30682;BME280;17439;48.092;11.842;2023-02-13T06:08:22;97267.03;;;4.15;68.38
30682;BME280;17439;48.092;11.842;2023-02-13T06:10:49;97277.53;;;4.16;68.19
30682;BME280;17439;48.092;11.842;2023-02-13T06:13:17;97285.81;;;4.15;68.25
30682;BME280;17439;48.092;11.842;2023-02-13T06:15:44;97276.75;;;4.16;68.18
30682;BME280;17439;48.092;11.842;2023-02-13T06:18:11;97283.13;;;4.15;67.89
30682;BME280;17439;48.092;11.842;2023-02-13T06:20:37;97278.63;;;4.15;67.86
30682;BME280;17439;48.092;11.842;2023-02-13T06:23:04;97285.59;;;4.16;67.46
30682;BME280;17439;48.092;11.842;2023-02-13T06:25:30;97289.56;;;4.14;67.58
30682;BME280;17439;48.092;11.842;2023-02-13T06:27:57;97296.78;;;4.13;67.59
30682;BME280;17439;48.092;11.842;2023-02-13T06:30:23;97294.31;;;4.12;67.85
30682;BME280;17439;48.092;11.842;2023-02-13T06:32:50;97299.09;;;4.10;67.67
30682;BME280;17439;48.092;11.842;2023-02-13T06:35:16;97299.91;;;4.10;67.64
30682;BME280;17439;48.092;11.842;2023-02-13T06:37:43;97296.66;;;4.08;67.76
30682;BME280;17439;48.092;11.842;2023-02-13T06:40:11;97302.81;;;4.09;68.15
30682;BME280;17439;48.092;11.842;2023-02-13T06:42:38;97305.38;;;4.04;67.61
30682;BME280;17439;48.092;11.842;2023-02-13T06:45:05;97305.50;;;4.09;68.15
30682;BME280;17439;48.092;11.842;2023-02-13T06:47:32;97304.25;;;4.11;67.97
30682;BME280;17439;48.092;11.842;2023-02-13T06:49:58;97308.59;;;4.12;67.71
30682;BME280;17439;48.092;11.842;2023-02-13T06:52:25;97301.56;;;4.11;68.01
30682;BME280;17439;48.092;11.842;2023-02-13T06:54:52;97305.06;;;4.12;67.96
30682;BME280;17439;48.092;11.842;2023-02-13T06:57:18;97304.84;;;4.13;68.13
30682;BME280;17439;48.092;11.842;2023-02-13T06:59:45;97312.09;;;4.13;68.03
30682;BME280;17439;48.092;11.842;2023-02-13T07:02:12;97305.91;;;4.12;68.27
30682;BME280;17439;48.092;11.842;2023-02-13T07:04:39;97312.09;;;4.13;68.45
30682;BME280;17439;48.092;11.842;2023-02-13T07:07:05;97314.75;;;4.13;68.79
30682;BME280;17439;48.092;11.842;2023-02-13T07:09:32;97317.00;;;4.16;68.75
30682;BME280;17439;48.092;11.842;2023-02-13T07:12:02;97317.81;;;4.16;68.46
30682;BME280;17439;48.092;11.842;2023-02-13T07:14:29;97314.69;;;4.20;68.80
30682;BME280;17439;48.092;11.842;2023-02-13T07:16:56;97321.72;;;4.21;68.64
30682;BME280;17439;48.092;11.842;2023-02-13T07:19:22;97324.97;;;4.23;68.93
30682;BME280;17439;48.092;11.842;2023-02-13T07:21:49;97332.00;;;4.24;68.87
30682;BME280;17439;48.092;11.842;2023-02-13T07:24:15;97335.28;;;4.26;68.85
30682;BME280;17439;48.092;11.842;2023-02-13T07:26:42;97335.06;;;4.27;68.91
30682;BME280;17439;48.092;11.842;2023-02-13T07:29:08;97337.72;;;4.27;68.72
30682;BME280;17439;48.092;11.842;2023-02-13T07:31:37;97338.31;;;4.29;68.78
30682;BME280;17439;48.092;11.842;2023-02-13T07:34:04;97342.88;;;4.29;68.71
30682;BME280;17439;48.092;11.842;2023-02-13T07:36:31;97349.69;;;4.31;68.89
30682;BME280;17439;48.092;11.842;2023-02-13T07:38:57;97349.69;;;4.31;68.83
30682;BME280;17439;48.092;11.842;2023-02-13T07:41:24;97349.69;;;4.31;68.75
30682;BME280;17439;48.092;11.842;2023-02-13T07:43:52;97357.50;;;4.33;68.72
30682;BME280;17439;48.092;11.842;2023-02-13T07:46:18;97356.66;;;4.32;68.64
30682;BME280;17439;48.092;11.842;2023-02-13T07:48:45;97360.41;;;4.31;68.27
30682;BME280;17439;48.092;11.842;2023-02-13T07:51:11;97360.88;;;4.28;68.34
30682;BME280;17439;48.092;11.842;2023-02-13T07:53:38;97371.38;;;4.30;68.41
30682;BME280;17439;48.092;11.842;2023-02-13T07:56:08;97369.72;;;4.29;68.03
30682;BME280;17439;48.092;11.842;2023-02-13T07:58:36;97372.19;;;4.30;68.49
30682;BME280;17439;48.092;11.842;2023-02-13T08:01:11;97376.75;;;4.30;67.45
30682;BME280;17439;48.092;11.842;2023-02-13T08:03:38;97379.22;;;4.31;68.58
30682;BME280;17439;48.092;11.842;2023-02-13T08:06:05;97381.06;;;4.31;68.39
30682;BME280;17439;48.092;11.842;2023-02-13T08:08:33;97381.69;;;4.33;68.48
30682;BME280;17439;48.092;11.842;2023-02-13T08:11:11;97378.16;;;4.32;67.29
30682;BME280;17439;48.092;11.842;2023-02-13T08:13:45;97382.50;;;4.33;68.53
30682;BME280;17439;48.092;11.842;2023-02-13T08:16:11;97374.44;;;4.33;68.50
30682;BME280;17439;48.092;11.842;2023-02-13T08:18:38;97377.72;;;4.35;68.49
30682;BME280;17439;48.092;11.842;2023-02-13T08:21:05;97375.63;;;4.38;68.50
30682;BME280;17439;48.092;11.842;2023-02-13T08:23:31;97369.66;;;4.35;68.23
30682;BME280;17439;48.092;11.842;2023-02-13T08:25:59;97374.56;;;4.39;68.35
30682;BME280;17439;48.092;11.842;2023-02-13T08:28:29;97370.28;;;4.38;67.78
30682;BME280;17439;48.092;11.842;2023-02-13T08:30:56;97376.69;;;4.36;68.36
30682;BME280;17439;48.092;11.842;2023-02-13T08:33:23;97365.94;;;4.36;68.50
30682;BME280;17439;48.092;11.842;2023-02-13T08:35:49;97368.16;;;4.40;68.36
30682;BME280;17439;48.092;11.842;2023-02-13T08:38:16;97378.47;;;4.43;68.73
30682;BME280;17439;48.092;11.842;2023-02-13T08:40:50;97373.91;;;4.43;68.62
30682;BME280;17439;48.092;11.842;2023-02-13T08:43:16;97376.16;;;4.46;68.69
30682;BME280;17439;48.092;11.842;2023-02-13T08:45:43;97370.56;;;4.48;68.42
30682;BME280;17439;48.092;11.842;2023-02-13T08:48:16;97376.50;;;4.50;67.71
30682;BME280;17439;48.092;11.842;2023-02-13T08:50:42;97383.31;;;4.52;67.97
30682;BME280;17439;48.092;11.842;2023-02-13T08:53:09;97384.75;;;4.55;68.17
30682;BME280;17439;48.092;11.842;2023-02-13T08:55:36;97381.00;;;4.56;68.00
30682;BME280;17439;48.092;11.842;2023-02-13T08:58:03;97386.13;;;4.58;67.96
30682;BME280;17439;48.092;11.842;2023-02-13T09:00:30;97382.19;;;4.60;68.08
30682;BME280;17439;48.092;11.842;2023-02-13T09:03:01;97375.97;;;4.60;66.91
30682;BME280;17439;48.092;11.842;2023-02-13T09:05:29;97380.91;;;4.63;68.06
30682;BME280;17439;48.092;11.842;2023-02-13T09:07:59;97377.03;;;4.59;67.30
30682;BME280;17439;48.092;11.842;2023-02-13T09:10:26;97379.28;;;4.62;67.95
30682;BME280;17439;48.092;11.842;2023-02-13T09:12:53;97383.59;;;4.63;67.98
30682;BME280;17439;48.092;11.842;2023-02-13T09:15:20;97384.44;;;4.63;68.07
30682;BME280;17439;48.092;11.842;2023-02-13T09:17:46;97381.53;;;4.65;68.14
30682;BME280;17439;48.092;11.842;2023-02-13T09:20:13;97384.19;;;4.65;68.13
30682;BME280;17439;48.092;11.842;2023-02-13T09:22:40;97390.75;;;4.69;68.14
30682;BME280;17439;48.092;11.842;2023-02-13T09:25:07;97384.56;;;4.68;67.79
30682;BME280;17439;48.092;11.842;2023-02-13T09:27:34;97387.25;;;4.68;67.79
30682;BME280;17439;48.092;11.842;2023-02-13T09:30:01;97383.13;;;4.66;67.68
30682;BME280;17439;48.092;11.842;2023-02-13T09:32:28;97377.31;;;4.69;67.98
30682;BME280;17439;48.092;11.842;2023-02-13T09:34:55;97387.84;;;4.70;67.90
30682;BME280;17439;48.092;11.842;2023-02-13T09:37:21;97379.56;;;4.72;67.93
30682;BME280;17439;48.092;11.842;2023-02-13T09:39:48;97382.59;;;4.76;67.83
30682;BME280;17439;48.092;11.842;2023-02-13T09:42:24;97383.81;;;4.80;66.64
30682;BME280;17439;48.092;11.842;2023-02-13T09:44:54;97385.00;;;4.84;67.15
30682;BME280;17439;48.092;11.842;2023-02-13T09:47:33;97383.25;;;4.89;66.47
30682;BME280;17439;48.092;11.842;2023-02-13T09:50:23;97379.88;;;4.94;67.66
30682;BME280;17439;48.092;11.842;2023-02-13T09:52:50;97387.03;;;5.00;67.54
30682;BME280;17439;48.092;11.842;2023-02-13T09:55:21;97387.03;;;5.00;66.82
30682;BME280;17439;48.092;11.842;2023-02-13T09:58:00;97385.16;;;5.01;66.18
30682;BME280;17439;48.092;11.842;2023-02-13T10:00:32;97387.03;;;5.00;66.69
30682;BME280;17439;48.092;11.842;2023-02-13T10:03:20;97394.66;;;5.03;66.32
30682;BME280;17439;48.092;11.842;2023-02-13T10:16:32;97391.94;;;5.22;66.11
30682;BME280;17439;48.092;11.842;2023-02-13T10:19:15;97402.81;;;5.27;66.27
30682;BME280;17439;48.092;11.842;2023-02-13T10:21:50;97403.03;;;5.25;65.05
30682;BME280;17439;48.092;11.842;2023-02-13T10:26:47;97394.44;;;5.47;67.84
30682;BME280;17439;48.092;11.842;2023-02-13T10:29:20;97387.31;;;5.53;66.84
30682;BME280;17439;48.092;11.842;2023-02-13T10:31:49;97387.44;;;5.58;66.99
30682;BME280;17439;48.092;11.842;2023-02-13T10:34:21;97387.22;;;5.59;65.15
30682;BME280;17439;48.092;11.842;2023-02-13T10:36:50;97384.28;;;5.61;65.71
30682;BME280;17439;48.092;11.842;2023-02-13T10:39:23;97380.91;;;5.66;65.69
30682;BME280;17439;48.092;11.842;2023-02-13T10:50:29;97377.97;;;5.55;62.32
30682;BME280;17439;48.092;11.842;2023-02-13T10:55:58;97369.34;;;5.65;64.65
30682;BME280;17439;48.092;11.842;2023-02-13T11:01:19;97362.19;;;5.71;63.69
30682;BME280;17439;48.092;11.842;2023-02-13T11:04:03;97357.41;;;5.73;63.98
30682;BME280;17439;48.092;11.842;2023-02-13T11:06:32;97355.06;;;5.76;65.35
30682;BME280;17439;48.092;11.842;2023-02-13T11:08:59;97357.53;;;5.78;65.40
30682;BME280;17439;48.092;11.842;2023-02-13T11:11:35;97357.28;;;5.79;62.96
30682;BME280;17439;48.092;11.842;2023-02-13T11:14:18;97350.25;;;5.78;63.12
30682;BME280;17439;48.092;11.842;2023-02-13T11:17:02;97356.38;;;5.86;61.88
30682;BME280;17439;48.092;11.842;2023-02-13T11:19:34;97346.28;;;5.93;65.57
30682;BME280;17439;48.092;11.842;2023-02-13T11:22:03;97343.97;;;5.96;65.47
30682;BME280;17439;48.092;11.842;2023-02-13T11:24:31;97343.13;;;5.96;65.15
30682;BME280;17439;48.092;11.842;2023-02-13T11:27:01;97343.97;;;5.96;64.46
30682;BME280;17439;48.092;11.842;2023-02-13T11:29:31;97338.09;;;5.99;64.81
30682;BME280;17439;48.092;11.842;2023-02-13T11:34:40;97338.59;;;6.08;65.42
30682;BME280;17439;48.092;11.842;2023-02-13T11:37:14;97338.69;;;6.13;64.68
30682;BME280;17439;48.092;11.842;2023-02-13T11:39:43;97338.69;;;6.13;64.68
30682;BME280;17439;48.092;11.842;2023-02-13T11:44:53;97346.88;;;6.18;63.96
30682;BME280;17439;48.092;11.842;2023-02-13T11:50:02;97344.88;;;6.26;65.13
30682;BME280;17439;48.092;11.842;2023-02-13T11:52:31;97350.84;;;6.28;64.89
30682;BME280;17439;48.092;11.842;2023-02-13T11:57:58;97346.41;;;6.33;63.33
30682;BME280;17439;48.092;11.842;2023-02-13T12:02:55;97340.53;;;6.37;64.49
30682;BME280;17439;48.092;11.842;2023-02-13T12:05:24;97353.31;;;6.41;64.64
30682;BME280;17439;48.092;11.842;2023-02-13T12:07:54;97349.28;;;6.44;64.59
30682;BME280;17439;48.092;11.842;2023-02-13T12:10:31;97350.72;;;6.46;64.31
30682;BME280;17439;48.092;11.842;2023-02-13T12:15:35;97337.91;;;6.53;63.35
30682;BME280;17439;48.092;11.842;2023-02-13T12:20:46;97335.44;;;6.52;62.94
30682;BME280;17439;48.092;11.842;2023-02-13T12:23:28;97330.06;;;6.52;62.70
30682;BME280;17439;48.092;11.842;2023-02-13T12:29:30;97325.03;;;6.56;63.85
30682;BME280;17439;48.092;11.842;2023-02-13T12:32:16;97319.16;;;6.59;64.46
30682;BME280;17439;48.092;11.842;2023-02-13T12:41:00;97311.88;;;6.59;63.46
30682;BME280;17439;48.092;11.842;2023-02-13T12:46:55;97307.41;;;6.65;62.76
30682;BME280;17439;48.092;11.842;2023-02-13T12:58:18;97303.88;;;6.76;63.26
30682;BME280;17439;48.092;11.842;2023-02-13T13:14:13;97292.63;;;6.96;63.49
30682;BME280;17439;48.092;11.842;2023-02-13T13:19:43;97297.84;;;7.03;62.55
30682;BME280;17439;48.092;11.842;2023-02-13T13:22:29;97309.47;;;7.03;61.17
30682;BME280;17439;48.092;11.842;2023-02-13T13:25:08;97296.97;;;6.97;61.34
30682;BME280;17439;48.092;11.842;2023-02-13T13:27:46;97290.25;;;7.00;62.06
30682;BME280;17439;48.092;11.842;2023-02-13T13:30:21;97295.75;;;7.05;63.00
30682;BME280;17439;48.092;11.842;2023-02-13T13:32:53;97295.50;;;7.06;62.67
30682;BME280;17439;48.092;11.842;2023-02-13T13:35:22;97300.66;;;7.08;63.10
30682;BME280;17439;48.092;11.842;2023-02-13T13:38:05;97301.47;;;7.08;62.48
30682;BME280;17439;48.092;11.842;2023-02-13T13:41:07;97299.56;;;7.09;61.97
30682;BME280;17439;48.092;11.842;2023-02-13T13:44:00;97302.75;;;7.06;60.98
30682;BME280;17439;48.092;11.842;2023-02-13T13:46:52;97301.72;;;7.07;62.39
30682;BME280;17439;48.092;11.842;2023-02-13T13:49:51;97298.44;;;7.05;60.37
30682;BME280;17439;48.092;11.842;2023-02-13T13:52:25;97298.56;;;6.98;61.30
30682;BME280;17439;48.092;11.842;2023-02-13T13:54:53;97299.31;;;6.94;62.03
30682;BME280;17439;48.092;11.842;2023-02-13T14:07:38;97291.47;;;6.92;63.52
30682;BME280;17439;48.092;11.842;2023-02-13T14:25:44;97290.84;;;7.02;62.94
30682;BME280;17439;48.092;11.842;2023-02-13T14:28:25;97292.13;;;6.99;61.81
30682;BME280;17439;48.092;11.842;2023-02-13T14:31:04;97291.81;;;6.96;61.67
30682;BME280;17439;48.092;11.842;2023-02-13T14:33:32;97289.09;;;6.96;63.30
30682;BME280;17439;48.092;11.842;2023-02-13T14:36:07;97280.22;;;6.95;62.87
30682;BME280;17439;48.092;11.842;2023-02-13T14:38:42;97284.28;;;6.98;63.54
30682;BME280;17439;48.092;11.842;2023-02-13T14:46:47;97288.53;;;6.94;63.36
30682;BME280;17439;48.092;11.842;2023-02-13T14:49:19;97289.03;;;6.90;62.37
30682;BME280;17439;48.092;11.842;2023-02-13T14:51:58;97284.13;;;6.87;61.80
30682;BME280;17439;48.092;11.842;2023-02-13T14:54:42;97281.66;;;6.86;61.19
30682;BME280;17439;48.092;11.842;2023-02-13T14:57:42;97280.81;;;6.85;61.97
30682;BME280;17439;48.092;11.842;2023-02-13T15:02:50;97274.94;;;6.88;62.86
30682;BME280;17439;48.092;11.842;2023-02-13T15:05:19;97278.72;;;6.87;63.68
30682;BME280;17439;48.092;11.842;2023-02-13T15:07:53;97275.44;;;6.85;61.91
30682;BME280;17439;48.092;11.842;2023-02-13T15:13:01;97266.78;;;6.83;63.39
30682;BME280;17439;48.092;11.842;2023-02-13T15:15:30;97270.09;;;6.74;61.92
30682;BME280;17439;48.092;11.842;2023-02-13T15:18:15;97271.50;;;6.76;62.51
30682;BME280;17439;48.092;11.842;2023-02-13T15:20:45;97268.81;;;6.76;63.77
30682;BME280;17439;48.092;11.842;2023-02-13T15:23:24;97274.69;;;6.73;61.90
30682;BME280;17439;48.092;11.842;2023-02-13T15:26:02;97268.69;;;6.71;62.82
30682;BME280;17439;48.092;11.842;2023-02-13T15:28:30;97276.22;;;6.69;63.33
30682;BME280;17439;48.092;11.842;2023-02-13T15:31:03;97273.69;;;6.62;61.93
30682;BME280;17439;48.092;11.842;2023-02-13T15:33:49;97276.03;;;6.59;62.34
30682;BME280;17439;48.092;11.842;2023-02-13T15:36:25;97273.00;;;6.55;62.38
30682;BME280;17439;48.092;11.842;2023-02-13T15:38:59;97273.69;;;6.50;61.89
30682;BME280;17439;48.092;11.842;2023-02-13T15:41:34;97274.09;;;6.42;62.32
30682;BME280;17439;48.092;11.842;2023-02-13T15:44:03;97267.31;;;6.40;63.27
30682;BME280;17439;48.092;11.842;2023-02-13T15:46:32;97277.16;;;6.34;63.13
30682;BME280;17439;48.092;11.842;2023-02-13T15:49:07;97284.06;;;6.30;62.68
30682;BME280;17439;48.092;11.842;2023-02-13T15:51:35;97276.25;;;6.28;63.47